Time;durP1;ratioP1;P1;durP2;ratioP2;P2;SDS_P1;SDS_P2;PMS_P1;PMS_P2;Temp;Humidity;BMP_temperature;BMP_pressure;BME280_temperature;BME280_humidity;BME280_pressure;Samples;Min_cycle;Max_cycle;Signal;HPM_P1;HPM_P2
2022/08/03 00:01:27;;;;;;;4.20;3.90;;;19.20;99.90;;;;;;5016379;28;21027;-82
2022/08/03 00:03:54;;;;;;;5.00;4.70;;;19.10;99.90;;;;;;5011324;28;20636;-82
2022/08/03 00:06:22;;;;;;;4.20;3.87;;;19.20;99.90;;;;;;5016326;28;20647;-82
2022/08/03 00:08:49;;;;;;;3.97;3.60;;;19.10;99.90;;;;;;5011647;28;20744;-82
2022/08/03 00:11:16;;;;;;;4.20;3.90;;;19.10;99.90;;;;;;5011126;28;20738;-82
2022/08/03 00:13:43;;;;;;;4.33;4.03;;;19.10;99.90;;;;;;5013331;28;21006;-82
2022/08/03 00:16:12;;;;;;;4.50;4.20;;;19.00;99.90;;;;;;5011896;28;21192;-82
2022/08/03 00:18:38;;;;;;;4.37;4.07;;;19.00;99.90;;;;;;5011656;28;20631;-82
2022/08/03 00:21:06;;;;;;;6.07;3.80;;;18.90;99.90;;;;;;5010960;28;20660;-82
2022/08/03 00:23:33;;;;;;;4.10;3.90;;;18.90;99.90;;;;;;5012225;28;20638;-83
2022/08/03 00:26:00;;;;;;;5.80;4.30;;;18.90;99.90;;;;;;5011109;28;21180;-83
2022/08/03 00:28:27;;;;;;;4.77;4.40;;;18.90;99.90;;;;;;5011943;28;20644;-83
2022/08/03 00:30:54;;;;;;;4.10;3.73;;;18.90;99.90;;;;;;5010764;28;21448;-83
2022/08/03 00:33:22;;;;;;;4.40;4.07;;;18.90;99.90;;;;;;5011251;28;20754;-83
2022/08/03 00:35:49;;;;;;;3.87;3.57;;;18.90;99.90;;;;;;5009170;28;20688;-83
2022/08/03 00:38:16;;;;;;;5.20;4.20;;;18.80;99.90;;;;;;5011325;28;20703;-83
2022/08/03 00:40:44;;;;;;;4.40;4.00;;;18.80;99.90;;;;;;5010252;28;20659;-83
2022/08/03 00:43:10;;;;;;;4.23;3.93;;;18.80;99.90;;;;;;5019514;28;20625;-83
2022/08/03 00:45:40;;;;;;;4.40;4.10;;;18.80;99.90;;;;;;5023678;28;20627;-83
2022/08/03 00:48:09;;;;;;;4.60;4.30;;;18.80;99.90;;;;;;5013868;28;20635;-83
2022/08/03 00:50:40;;;;;;;4.70;4.30;;;18.70;99.90;;;;;;5009501;28;20670;-83
2022/08/03 00:53:09;;;;;;;4.70;4.30;;;18.60;99.90;;;;;;5009191;28;20620;-83
2022/08/03 00:55:37;;;;;;;3.87;3.67;;;18.60;99.90;;;;;;5010842;28;20675;-83
2022/08/03 00:58:05;;;;;;;3.83;3.63;;;18.60;99.90;;;;;;5010628;28;20628;-83
2022/08/03 01:00:34;;;;;;;4.17;3.87;;;18.60;99.90;;;;;;5010216;28;21246;-83
2022/08/03 01:03:01;;;;;;;4.83;4.43;;;18.60;99.90;;;;;;5007378;28;21182;-83
2022/08/03 01:05:29;;;;;;;4.60;4.20;;;18.60;99.90;;;;;;5014031;28;20629;-83
2022/08/03 01:08:03;;;;;;;4.53;4.23;;;18.50;99.90;;;;;;5010836;28;20991;-83
2022/08/03 01:10:37;;;;;;;4.23;3.80;;;18.50;99.90;;;;;;5010462;28;20662;-82
2022/08/03 01:13:16;;;;;;;4.43;3.77;;;18.50;99.90;;;;;;5016153;28;20663;-83
2022/08/03 01:15:47;;;;;;;4.87;4.50;;;18.50;99.90;;;;;;5016279;28;20663;-83
2022/08/03 01:18:17;;;;;;;4.77;4.47;;;18.50;99.90;;;;;;5011071;28;20634;-82
2022/08/03 01:20:48;;;;;;;4.17;3.83;;;18.40;99.90;;;;;;5015197;28;20643;-83
2022/08/03 01:23:56;;;;;;;4.97;4.57;;;18.40;99.90;;;;;;5010400;28;20626;-82
2022/08/03 01:26:51;;;;;;;4.10;3.90;;;18.40;99.90;;;;;;5002922;28;20675;-83
2022/08/03 01:29:58;;;;;;;4.27;3.97;;;18.40;99.90;;;;;;5009426;28;20686;-83
2022/08/03 01:32:34;;;;;;;4.27;3.93;;;18.30;99.90;;;;;;4992084;28;20659;-83
2022/08/03 01:35:04;;;;;;;4.47;4.17;;;18.20;99.90;;;;;;4990078;28;20659;-82
2022/08/03 01:37:40;;;;;;;4.93;4.53;;;18.20;99.90;;;;;;4993827;28;20631;-82
2022/08/03 01:40:10;;;;;;;4.80;4.40;;;18.20;99.90;;;;;;4994405;28;20660;-83
2022/08/03 01:42:39;;;;;;;4.73;4.33;;;18.20;99.90;;;;;;4997544;28;20624;-82
2022/08/03 01:45:10;;;;;;;4.50;4.20;;;18.20;99.90;;;;;;4997200;28;20655;-82
2022/08/03 01:47:38;;;;;;;4.67;4.37;;;18.20;99.90;;;;;;4991059;28;20625;-82
2022/08/03 01:50:06;;;;;;;4.53;4.13;;;18.20;99.90;;;;;;4993216;28;20656;-82
2022/08/03 01:52:34;;;;;;;4.60;4.30;;;18.20;99.90;;;;;;4996227;28;20628;-82
2022/08/03 01:55:02;;;;;;;6.37;4.50;;;18.10;99.90;;;;;;4988894;28;21279;-82
2022/08/03 01:57:30;;;;;;;4.97;4.57;;;18.10;99.90;;;;;;4993015;28;20636;-82
2022/08/03 02:00:01;;;;;;;3.90;3.70;;;18.20;99.90;;;;;;4995650;28;20657;-82
2022/08/03 02:02:31;;;;;;;4.27;3.87;;;18.10;99.90;;;;;;4991153;28;20627;-83
2022/08/03 02:05:00;;;;;;;4.93;4.63;;;18.10;99.90;;;;;;4988775;28;20637;-83
2022/08/03 02:07:28;;;;;;;4.03;3.83;;;18.10;99.90;;;;;;4997014;28;20975;-83
2022/08/03 02:09:56;;;;;;;6.17;4.20;;;18.10;99.90;;;;;;4989948;28;21245;-83
2022/08/03 02:12:26;;;;;;;4.87;4.47;;;18.10;99.90;;;;;;4990091;28;20624;-83
2022/08/03 02:14:55;;;;;;;6.80;4.50;;;18.00;99.90;;;;;;4994792;28;20672;-82
2022/08/03 02:17:23;;;;;;;4.90;4.50;;;18.00;99.90;;;;;;4992758;28;21137;-82
2022/08/03 02:19:53;;;;;;;5.37;4.67;;;18.00;99.90;;;;;;4996556;28;20671;-82
2022/08/03 02:22:22;;;;;;;5.20;4.80;;;17.90;99.90;;;;;;4999559;28;21199;-82
2022/08/03 02:24:50;;;;;;;5.07;4.67;;;17.90;99.90;;;;;;4993828;28;20640;-83
2022/08/03 02:27:21;;;;;;;4.33;4.03;;;17.90;99.90;;;;;;4997403;28;20628;-83
2022/08/03 02:29:51;;;;;;;4.43;4.23;;;17.90;99.90;;;;;;4993711;28;20659;-82
2022/08/03 02:32:23;;;;;;;4.20;3.93;;;17.90;99.90;;;;;;4995121;28;20667;-83
2022/08/03 02:34:55;;;;;;;4.70;4.30;;;18.00;99.90;;;;;;4991681;28;20717;-82
2022/08/03 02:37:25;;;;;;;5.03;4.30;;;17.90;99.90;;;;;;4995613;28;20640;-83
2022/08/03 02:39:56;;;;;;;4.23;4.03;;;17.90;99.90;;;;;;4994231;28;20670;-83
2022/08/03 02:42:24;;;;;;;4.43;4.07;;;17.90;99.90;;;;;;4991406;28;20635;-82
2022/08/03 02:44:55;;;;;;;5.37;4.33;;;17.90;99.90;;;;;;4997605;28;21000;-82
2022/08/03 02:47:23;;;;;;;4.93;4.53;;;17.80;99.90;;;;;;5010345;28;20619;-82
2022/08/03 02:49:51;;;;;;;5.23;4.83;;;17.80;99.90;;;;;;4993548;28;20771;-82
2022/08/03 02:52:22;;;;;;;5.00;4.60;;;17.80;99.90;;;;;;4994354;28;20663;-82
2022/08/03 02:54:50;;;;;;;4.20;3.90;;;17.80;99.90;;;;;;4992880;28;20719;-82
2022/08/03 02:57:19;;;;;;;4.90;4.60;;;17.70;99.90;;;;;;4994032;28;21014;-82
2022/08/03 02:59:46;;;;;;;5.30;4.80;;;17.80;99.90;;;;;;4993412;28;20659;-82
2022/08/03 03:02:15;;;;;;;4.50;4.10;;;17.70;99.90;;;;;;4993045;28;20643;-82
2022/08/03 03:04:43;;;;;;;5.53;5.10;;;17.70;99.90;;;;;;4998953;28;20729;-82
2022/08/03 03:07:12;;;;;;;4.73;4.07;;;17.70;99.90;;;;;;4997663;28;20643;-82
2022/08/03 03:09:41;;;;;;;4.70;4.30;;;17.70;99.90;;;;;;4999474;28;20695;-82
2022/08/03 03:12:09;;;;;;;5.10;4.67;;;17.70;99.90;;;;;;4992147;28;21200;-82
2022/08/03 03:14:37;;;;;;;4.77;4.30;;;17.80;99.90;;;;;;4996973;28;20632;-82
2022/08/03 03:17:06;;;;;;;5.13;4.27;;;17.70;99.90;;;;;;4992857;28;20668;-82
2022/08/03 03:19:33;;;;;;;4.43;4.00;;;17.60;99.90;;;;;;4992988;28;20746;-82
2022/08/03 03:22:02;;;;;;;4.63;4.23;;;17.60;99.90;;;;;;5002829;28;20657;-82
2022/08/03 03:24:29;;;;;;;5.10;4.50;;;17.60;99.90;;;;;;5001216;28;20639;-82
2022/08/03 03:26:58;;;;;;;4.50;4.20;;;17.60;99.90;;;;;;4992161;28;20997;-82
2022/08/03 03:29:25;;;;;;;5.57;5.10;;;17.60;99.90;;;;;;4993895;28;20632;-82
2022/08/03 03:31:53;;;;;;;4.60;4.40;;;17.60;99.90;;;;;;4990727;28;20633;-82
2022/08/03 03:34:20;;;;;;;5.50;5.00;;;17.60;99.90;;;;;;4993445;28;21131;-82
2022/08/03 03:36:47;;;;;;;4.23;4.00;;;17.50;99.90;;;;;;4992754;28;20672;-82
2022/08/03 03:39:14;;;;;;;4.30;4.00;;;17.50;99.90;;;;;;4993413;28;21291;-82
2022/08/03 03:41:41;;;;;;;5.10;4.70;;;17.50;99.90;;;;;;4993229;28;20636;-82
2022/08/03 03:44:09;;;;;;;4.80;4.40;;;17.50;99.90;;;;;;4993908;28;20675;-82
2022/08/03 03:46:37;;;;;;;4.80;4.40;;;17.60;99.90;;;;;;4992641;28;20643;-82
2022/08/03 03:49:05;;;;;;;4.60;4.23;;;17.50;99.90;;;;;;4992965;28;20635;-82
2022/08/03 03:51:32;;;;;;;4.93;4.53;;;17.50;99.90;;;;;;4994088;28;20683;-82
2022/08/03 03:54:01;;;;;;;4.63;4.20;;;17.50;99.90;;;;;;4992464;28;20628;-82
2022/08/03 03:56:28;;;;;;;4.77;4.47;;;17.50;99.90;;;;;;4992476;28;21443;-82
2022/08/03 03:58:56;;;;;;;5.20;4.80;;;17.50;99.90;;;;;;4992192;28;20678;-82
2022/08/03 04:01:24;;;;;;;5.17;4.73;;;17.50;99.90;;;;;;4997981;28;21333;-82
2022/08/03 04:03:51;;;;;;;4.70;4.30;;;17.50;99.90;;;;;;4992291;28;20644;-82
2022/08/03 04:11:51;;;;;;;4.07;3.83;;;17.50;99.90;;;;;;4991735;28;20640;-81
2022/08/03 04:14:20;;;;;;;4.87;4.57;;;17.50;99.90;;;;;;4997269;28;20631;-82
2022/08/03 04:16:50;;;;;;;4.70;4.40;;;17.50;99.90;;;;;;4990525;28;20683;-81
2022/08/03 04:19:24;;;;;;;4.43;4.03;;;17.50;99.90;;;;;;4993113;28;20636;-81
2022/08/03 04:21:55;;;;;;;5.20;4.50;;;17.50;99.90;;;;;;4991729;28;20647;-81
2022/08/03 04:24:23;;;;;;;6.97;5.10;;;17.50;99.90;;;;;;4991659;28;20679;-82
2022/08/03 04:26:51;;;;;;;4.67;4.37;;;17.50;99.90;;;;;;4994683;28;20642;-82
2022/08/03 04:29:20;;;;;;;4.80;4.40;;;17.50;99.90;;;;;;4994918;28;20655;-82
2022/08/03 04:31:50;;;;;;;5.77;4.80;;;17.60;99.90;;;;;;4997962;28;20635;-81
2022/08/03 04:34:17;;;;;;;5.20;4.80;;;17.60;99.90;;;;;;4992785;28;20727;-82
2022/08/03 04:36:49;;;;;;;4.47;4.13;;;17.60;99.90;;;;;;4990429;28;20671;-82
2022/08/03 04:39:22;;;;;;;5.03;4.73;;;17.60;99.90;;;;;;4992723;28;20972;-82
2022/08/03 04:41:51;;;;;;;4.47;4.20;;;17.70;99.90;;;;;;4991106;28;20633;-82
2022/08/03 04:44:21;;;;;;;4.87;4.47;;;17.70;99.90;;;;;;4998556;28;21697;-81
2022/08/03 04:46:50;;;;;;;5.07;4.77;;;17.70;99.90;;;;;;4989727;28;20636;-82
2022/08/03 04:49:19;;;;;;;4.90;4.50;;;17.80;99.90;;;;;;4991345;28;20626;-82
2022/08/03 04:51:47;;;;;;;4.70;4.30;;;17.80;99.90;;;;;;4996752;28;20993;-82
2022/08/03 04:54:15;;;;;;;5.80;4.80;;;17.80;99.90;;;;;;4990105;28;20699;-82
2022/08/03 04:56:42;;;;;;;5.30;4.90;;;17.90;99.90;;;;;;4988812;28;21310;-84
2022/08/03 04:59:10;;;;;;;4.57;4.10;;;17.90;99.90;;;;;;4997474;28;20734;-82
2022/08/03 05:01:37;;;;;;;5.70;4.20;;;17.90;99.90;;;;;;4990575;28;20713;-83
2022/08/03 05:04:05;;;;;;;3.83;3.63;;;18.00;99.90;;;;;;4994646;28;20632;-83
2022/08/03 05:06:32;;;;;;;5.30;4.90;;;18.00;99.90;;;;;;4992936;28;20627;-83
2022/08/03 05:09:01;;;;;;;5.53;5.03;;;18.10;99.90;;;;;;4989778;28;20647;-82
2022/08/03 05:11:28;;;;;;;4.80;4.50;;;18.20;99.90;;;;;;4998159;28;20705;-83
2022/08/03 05:13:55;;;;;;;5.20;4.80;;;18.20;99.90;;;;;;4992923;28;20701;-83
2022/08/03 05:16:22;;;;;;;5.47;5.10;;;18.30;99.90;;;;;;4994937;28;20668;-82
2022/08/03 05:18:49;;;;;;;12.03;5.30;;;18.30;99.90;;;;;;4990850;28;20703;-82
2022/08/03 05:21:17;;;;;;;7.00;5.30;;;18.40;99.90;;;;;;4992294;28;20715;-81
2022/08/03 05:23:44;;;;;;;5.63;5.23;;;18.50;99.90;;;;;;4994264;28;20652;-81
2022/08/03 05:26:11;;;;;;;5.40;5.07;;;18.50;99.90;;;;;;4991982;28;20647;-81
2022/08/03 05:28:38;;;;;;;6.43;4.63;;;18.60;99.90;;;;;;4995070;28;20640;-81
2022/08/03 05:31:05;;;;;;;5.13;4.63;;;18.60;99.90;;;;;;4992676;28;21078;-81
2022/08/03 05:33:32;;;;;;;5.13;4.80;;;18.70;99.90;;;;;;4990702;28;21082;-81
2022/08/03 05:35:59;;;;;;;5.33;4.93;;;18.70;99.90;;;;;;4992725;28;20686;-81
2022/08/03 05:38:28;;;;;;;5.63;5.23;;;18.90;99.90;;;;;;4991246;28;20651;-81
2022/08/03 05:40:55;;;;;;;6.60;5.10;;;18.90;99.90;;;;;;4990196;28;20636;-81
2022/08/03 05:43:21;;;;;;;5.53;5.13;;;19.00;99.90;;;;;;5001770;28;20686;-81
2022/08/03 05:45:48;;;;;;;5.90;5.50;;;19.10;99.90;;;;;;4993608;28;20639;-81
2022/08/03 05:48:15;;;;;;;6.07;5.20;;;19.10;99.90;;;;;;4989291;28;20616;-82
2022/08/03 05:50:43;;;;;;;5.27;4.63;;;19.10;99.90;;;;;;4987278;28;20847;-81
2022/08/03 05:53:09;;;;;;;4.97;4.60;;;19.20;99.90;;;;;;4994502;28;20655;-81
2022/08/03 05:55:38;;;;;;;6.03;5.43;;;19.30;99.90;;;;;;4998534;28;20709;-81
2022/08/03 05:58:04;;;;;;;5.10;4.70;;;19.30;99.90;;;;;;4993953;28;20625;-81
2022/08/03 06:00:31;;;;;;;4.90;4.60;;;19.30;99.90;;;;;;4995194;28;20623;-81
2022/08/03 06:02:59;;;;;;;5.33;4.80;;;19.40;99.90;;;;;;4991349;28;20738;-81
2022/08/03 06:05:27;;;;;;;5.30;4.77;;;19.50;99.90;;;;;;4994447;28;20629;-81
2022/08/03 06:07:54;;;;;;;5.20;4.63;;;19.40;99.90;;;;;;4993904;28;20727;-81
2022/08/03 06:10:21;;;;;;;5.20;4.60;;;19.50;99.90;;;;;;4995258;28;20720;-81
2022/08/03 06:12:50;;;;;;;4.23;3.93;;;19.60;99.90;;;;;;4996836;28;20642;-81
2022/08/03 06:15:18;;;;;;;6.23;5.43;;;19.80;99.90;;;;;;5010273;28;20707;-81
2022/08/03 06:17:46;;;;;;;4.70;4.40;;;19.70;99.90;;;;;;5002270;28;20672;-81
2022/08/03 06:20:16;;;;;;;5.10;3.90;;;19.70;99.90;;;;;;5002885;28;20644;-81
2022/08/03 06:22:43;;;;;;;4.53;4.23;;;19.80;99.90;;;;;;5010542;28;20640;-80
2022/08/03 06:25:10;;;;;;;4.53;4.13;;;19.90;99.90;;;;;;5003546;28;20650;-80
2022/08/03 06:27:38;;;;;;;4.60;4.37;;;20.00;99.90;;;;;;5003077;28;20634;-82
2022/08/03 06:30:09;;;;;;;5.20;4.77;;;20.10;99.90;;;;;;5002158;28;20637;-82
2022/08/03 06:32:36;;;;;;;4.63;4.20;;;20.30;99.90;;;;;;5004876;28;21178;-82
2022/08/03 06:35:06;;;;;;;5.00;4.30;;;20.40;99.90;;;;;;5004063;28;20639;-80
2022/08/03 06:37:42;;;;;;;4.63;4.33;;;20.50;99.90;;;;;;5003604;28;21110;-80
2022/08/03 06:40:12;;;;;;;4.50;4.10;;;20.60;99.90;;;;;;5002265;28;20628;-80
2022/08/03 06:42:38;;;;;;;4.40;4.00;;;20.70;99.90;;;;;;5000250;28;21206;-80
2022/08/03 06:45:08;;;;;;;5.30;4.30;;;20.70;99.90;;;;;;5001329;28;21152;-80
2022/08/03 06:47:35;;;;;;;4.97;2.80;;;20.90;99.90;;;;;;5002570;28;20749;-80
2022/08/03 06:50:02;;;;;;;4.20;3.87;;;21.00;99.90;;;;;;4992374;28;20658;-80
2022/08/03 06:52:30;;;;;;;3.30;3.10;;;21.10;99.90;;;;;;5002569;28;20672;-82
2022/08/03 06:54:57;;;;;;;4.00;3.70;;;21.30;99.90;;;;;;5003339;28;21053;-80
2022/08/03 06:57:24;;;;;;;5.33;4.03;;;21.50;99.90;;;;;;5007772;28;21109;-80
2022/08/03 06:59:51;;;;;;;4.90;3.80;;;21.50;99.90;;;;;;5006051;28;20627;-80
2022/08/03 07:02:19;;;;;;;4.53;4.20;;;21.70;99.90;;;;;;5001416;28;20666;-83
2022/08/03 07:04:46;;;;;;;4.13;3.83;;;21.80;99.90;;;;;;5004909;28;20659;-80
2022/08/03 07:07:13;;;;;;;4.87;4.20;;;21.80;99.90;;;;;;5004158;28;20623;-80
2022/08/03 07:09:40;;;;;;;5.47;3.57;;;21.90;99.90;;;;;;5000428;28;21270;-81
2022/08/03 07:12:10;;;;;;;4.87;3.73;;;22.00;99.90;;;;;;5000543;28;20720;-81
2022/08/03 07:14:37;;;;;;;5.00;3.90;;;22.20;99.90;;;;;;5004291;28;20659;-81
2022/08/03 07:17:04;;;;;;;4.30;4.00;;;22.20;99.90;;;;;;5001256;28;20670;-81
2022/08/03 07:19:32;;;;;;;3.60;3.40;;;22.30;99.90;;;;;;5004336;28;20619;-82
2022/08/03 07:21:59;;;;;;;4.20;3.63;;;22.50;99.90;;;;;;5001387;28;21033;-82
2022/08/03 07:24:26;;;;;;;3.93;3.53;;;22.60;99.90;;;;;;5003026;28;20652;-80
2022/08/03 07:26:53;;;;;;;6.60;4.33;;;22.60;99.90;;;;;;5002073;28;20618;-80
2022/08/03 07:29:21;;;;;;;3.73;3.30;;;22.70;99.90;;;;;;4999363;28;21002;-81
2022/08/03 07:31:47;;;;;;;4.67;3.67;;;22.80;99.90;;;;;;5000563;28;21245;-80
2022/08/03 07:34:15;;;;;;;3.63;2.97;;;22.90;99.90;;;;;;5000778;28;20660;-80
2022/08/03 07:36:43;;;;;;;4.40;4.00;;;22.90;99.90;;;;;;5004017;28;21270;-81
2022/08/03 07:39:10;;;;;;;9.40;2.70;;;23.00;99.90;;;;;;5004389;28;20638;-81
2022/08/03 07:41:37;;;;;;;3.20;3.00;;;23.10;99.90;;;;;;5000680;28;20714;-80
2022/08/03 07:44:05;;;;;;;4.23;3.83;;;23.20;99.90;;;;;;5000673;28;21016;-81
2022/08/03 07:46:32;;;;;;;3.43;3.13;;;23.30;99.90;;;;;;5002234;28;20908;-80
2022/08/03 07:48:59;;;;;;;4.70;3.37;;;23.40;99.90;;;;;;5003872;28;20727;-81
2022/08/03 07:51:26;;;;;;;3.30;2.80;;;23.60;99.90;;;;;;5001961;28;20636;-81
2022/08/03 07:53:56;;;;;;;3.50;3.30;;;23.70;99.90;;;;;;5000218;28;20733;-81
2022/08/03 07:56:23;;;;;;;3.33;3.03;;;23.80;99.90;;;;;;5000205;28;20736;-81
2022/08/03 07:58:50;;;;;;;3.60;3.30;;;23.90;99.90;;;;;;5009424;28;20730;-81
2022/08/03 08:01:18;;;;;;;3.43;3.13;;;24.00;99.90;;;;;;4998857;28;21117;-81
2022/08/03 08:03:45;;;;;;;3.33;3.03;;;24.10;99.90;;;;;;4998655;28;20662;-81
2022/08/03 08:06:12;;;;;;;3.50;3.30;;;24.10;99.90;;;;;;5000604;28;20636;-81
2022/08/03 08:08:39;;;;;;;3.13;2.90;;;24.30;99.90;;;;;;5003653;28;20623;-81
2022/08/03 08:11:08;;;;;;;3.60;3.30;;;24.40;99.90;;;;;;4992640;28;20633;-81
2022/08/03 08:13:36;;;;;;;9.47;2.87;;;24.50;99.90;;;;;;5000468;28;20650;-80
2022/08/03 08:16:03;;;;;;;3.43;3.13;;;24.70;99.90;;;;;;5009963;28;20628;-81
2022/08/03 08:18:30;;;;;;;4.97;3.40;;;24.80;99.90;;;;;;5002986;28;20670;-81
2022/08/03 08:20:57;;;;;;;5.50;3.30;;;24.90;99.90;;;;;;5003328;28;20640;-81
2022/08/03 08:23:24;;;;;;;3.20;2.90;;;25.00;99.90;;;;;;5002429;28;20664;-81
2022/08/03 08:25:52;;;;;;;3.80;3.50;;;25.10;99.90;;;;;;4999356;28;21459;-80
2022/08/03 08:28:21;;;;;;;4.60;2.83;;;25.10;99.90;;;;;;5000715;28;20695;-81
2022/08/03 08:30:48;;;;;;;4.40;2.50;;;25.30;99.90;;;;;;5002681;28;21572;-81
2022/08/03 08:33:15;;;;;;;4.30;2.33;;;25.30;99.90;;;;;;5002985;28;20660;-81
2022/08/03 08:35:42;;;;;;;2.73;2.53;;;25.40;99.90;;;;;;4999738;28;20632;-81
2022/08/03 08:38:09;;;;;;;2.50;2.30;;;25.60;99.90;;;;;;5000052;28;20679;-81
2022/08/03 08:40:36;;;;;;;2.00;1.90;;;25.70;99.90;;;;;;5009088;28;20627;-80
2022/08/03 08:43:03;;;;;;;2.03;1.90;;;25.80;99.40;;;;;;5003783;28;21175;-81
2022/08/03 08:45:31;;;;;;;1.93;1.83;;;25.90;98.60;;;;;;4999964;28;20636;-83
2022/08/03 08:48:02;;;;;;;2.53;2.33;;;26.10;99.30;;;;;;4999697;28;20632;-80
2022/08/03 08:50:29;;;;;;;3.60;1.90;;;26.30;99.10;;;;;;5003019;28;20626;-80
2022/08/03 08:53:00;;;;;;;3.27;1.97;;;26.30;98.10;;;;;;4997741;28;20743;-80
2022/08/03 08:55:27;;;;;;;2.07;1.97;;;26.50;99.10;;;;;;4996759;28;20613;-81
2022/08/03 08:58:00;;;;;;;2.77;1.70;;;26.60;97.30;;;;;;4997837;28;20664;-81
2022/08/03 09:00:29;;;;;;;1.87;1.53;;;26.60;95.90;;;;;;5002421;28;20634;-81
2022/08/03 09:02:58;;;;;;;2.07;1.97;;;26.80;95.60;;;;;;4999177;28;20659;-81
2022/08/03 09:05:25;;;;;;;3.07;2.20;;;26.90;96.20;;;;;;5008696;28;20645;-81
2022/08/03 09:07:51;;;;;;;2.90;1.70;;;27.10;96.50;;;;;;5001342;28;20642;-81
2022/08/03 09:10:21;;;;;;;1.87;1.77;;;27.20;95.20;;;;;;4999142;28;21064;-81
2022/08/03 09:12:50;;;;;;;1.67;1.50;;;27.30;94.60;;;;;;4996016;28;20643;-81
2022/08/03 09:15:22;;;;;;;2.00;1.80;;;27.30;93.50;;;;;;5008086;28;20631;-81
2022/08/03 09:17:50;;;;;;;1.97;1.77;;;27.40;93.40;;;;;;4996302;28;20675;-81
2022/08/03 09:20:20;;;;;;;2.33;2.10;;;27.50;92.80;;;;;;4999732;28;20979;-81
2022/08/03 09:22:56;;;;;;;2.07;1.63;;;27.60;92.40;;;;;;4998289;28;20632;-81
2022/08/03 09:25:34;;;;;;;1.53;1.43;;;27.60;91.90;;;;;;5003371;28;20953;-81
2022/08/03 09:28:09;;;;;;;1.47;1.37;;;27.80;92.10;;;;;;4994024;28;20701;-81
2022/08/03 09:30:38;;;;;;;2.50;1.87;;;27.90;91.20;;;;;;5005585;28;21074;-81
2022/08/03 09:33:07;;;;;;;1.37;1.27;;;28.00;90.70;;;;;;5002209;28;20668;-81
2022/08/03 09:35:41;;;;;;;1.77;1.40;;;28.10;90.30;;;;;;5001924;28;20638;-81
2022/08/03 09:38:13;;;;;;;1.60;1.50;;;28.10;90.10;;;;;;5001346;28;20695;-81
2022/08/03 09:40:41;;;;;;;2.03;1.80;;;28.20;88.10;;;;;;5001609;28;21308;-82
2022/08/03 09:43:08;;;;;;;2.63;1.77;;;28.30;88.60;;;;;;5001452;28;20682;-81
2022/08/03 09:45:35;;;;;;;1.90;1.80;;;28.40;87.70;;;;;;4996806;28;20624;-81
2022/08/03 09:48:22;;;;;;;1.43;1.33;;;28.50;88.00;;;;;;5006049;28;20622;-81
2022/08/03 09:50:51;;;;;;;2.90;1.60;;;28.50;85.20;;;;;;5000791;28;21009;-81
2022/08/03 09:53:19;;;;;;;1.70;1.60;;;28.60;85.60;;;;;;5002319;28;20662;-81
2022/08/03 09:55:56;;;;;;;1.60;1.37;;;28.70;84.00;;;;;;5005582;28;20662;-81
2022/08/03 09:58:24;;;;;;;1.80;1.70;;;28.80;83.60;;;;;;5005355;28;20655;-81
2022/08/03 10:01:00;;;;;;;1.70;1.60;;;29.00;81.60;;;;;;5003788;28;20635;-81
2022/08/03 10:03:28;;;;;;;5.07;1.80;;;29.10;81.40;;;;;;5003547;28;20647;-81
2022/08/03 10:05:57;;;;;;;2.43;1.50;;;29.10;80.10;;;;;;5000087;28;20634;-81
2022/08/03 10:08:24;;;;;;;1.43;1.33;;;29.00;76.80;;;;;;5004549;28;20620;-81
2022/08/03 10:10:53;;;;;;;8.37;2.10;;;29.10;77.50;;;;;;5001096;28;20734;-81
2022/08/03 10:13:21;;;;;;;1.70;1.60;;;29.20;80.20;;;;;;5005955;28;20651;-81
2022/08/03 10:15:48;;;;;;;2.50;1.60;;;29.30;77.60;;;;;;5003806;28;20635;-81
2022/08/03 10:18:15;;;;;;;3.57;1.80;;;29.40;77.10;;;;;;5003160;28;20700;-81
2022/08/03 10:20:46;;;;;;;13.20;2.23;;;29.50;76.80;;;;;;4998507;28;20691;-81
2022/08/03 10:23:16;;;;;;;2.53;1.70;;;29.50;74.80;;;;;;5003140;28;20790;-81
2022/08/03 10:25:44;;;;;;;1.70;1.60;;;29.60;74.40;;;;;;5001045;28;20634;-81
2022/08/03 10:28:14;;;;;;;1.90;1.80;;;29.70;75.80;;;;;;5005361;28;20635;-81
2022/08/03 10:30:47;;;;;;;1.83;1.50;;;29.90;76.00;;;;;;4999433;28;20628;-81
2022/08/03 10:33:17;;;;;;;2.03;1.93;;;30.10;74.00;;;;;;5004111;28;20782;-81
2022/08/03 10:35:47;;;;;;;2.00;1.90;;;30.30;73.70;;;;;;5001893;28;20612;-81
2022/08/03 10:38:20;;;;;;;1.77;1.67;;;30.50;71.50;;;;;;5003518;28;20763;-81
2022/08/03 10:40:50;;;;;;;1.80;1.70;;;30.70;70.70;;;;;;4998555;28;20619;-82
2022/08/03 10:43:20;;;;;;;2.10;2.00;;;30.70;66.70;;;;;;5006232;28;20643;-81
2022/08/03 10:45:47;;;;;;;2.17;1.57;;;30.80;65.80;;;;;;5003955;28;20620;-81
2022/08/03 10:48:15;;;;;;;1.83;1.73;;;30.90;65.60;;;;;;5007241;28;20699;-81
2022/08/03 10:50:43;;;;;;;2.90;2.80;;;31.20;66.50;;;;;;5005182;28;20686;-82
2022/08/03 10:53:09;;;;;;;2.60;2.50;;;31.40;64.10;;;;;;5006018;28;21075;-81
2022/08/03 10:58:52;;;;;;;3.47;3.27;;;31.70;62.40;;;;;;5007840;28;20628;-81
2022/08/03 11:01:20;;;;;;;2.77;2.57;;;32.10;63.90;;;;;;5007962;28;20628;-81
2022/08/03 11:04:23;;;;;;;4.13;3.93;;;32.30;61.00;;;;;;5004868;28;20663;-82
2022/08/03 11:07:19;;;;;;;4.47;4.17;;;32.60;60.20;;;;;;5000310;28;20800;-81
2022/08/03 11:09:47;;;;;;;2.93;2.83;;;32.60;58.50;;;;;;5004992;28;21160;-81
2022/08/03 11:12:24;;;;;;;1.80;1.70;;;32.60;58.40;;;;;;5001953;28;20659;-81
2022/08/03 11:14:52;;;;;;;2.47;2.03;;;33.00;57.70;;;;;;5003380;28;20658;-81
2022/08/03 11:17:20;;;;;;;2.27;2.07;;;33.10;57.10;;;;;;5006560;28;20759;-81
2022/08/03 11:19:48;;;;;;;1.70;1.60;;;33.20;57.30;;;;;;5002457;28;20623;-81
2022/08/03 11:22:15;;;;;;;1.80;1.70;;;33.40;56.40;;;;;;5007648;28;20632;-81
2022/08/03 11:25:01;;;;;;;1.80;1.70;;;33.50;55.40;;;;;;5008186;28;20661;-81
2022/08/03 11:27:33;;;;;;;2.90;2.70;;;33.70;55.40;;;;;;5003909;28;20681;-81
2022/08/03 11:30:05;;;;;;;4.93;4.70;;;33.90;55.40;;;;;;5009162;28;21008;-81
2022/08/03 11:32:51;;;;;;;3.80;3.60;;;33.60;54.50;;;;;;5008642;28;20634;-81
2022/08/03 11:35:19;;;;;;;2.30;2.10;;;34.10;55.40;;;;;;5011848;28;20738;-81
2022/08/03 11:38:03;;;;;;;2.47;2.37;;;34.40;53.40;;;;;;5007888;28;21036;-81
2022/08/03 11:40:38;;;;;;;3.40;2.27;;;34.50;53.50;;;;;;5007639;28;21194;-81
2022/08/03 11:43:08;;;;;;;2.40;2.23;;;34.60;52.90;;;;;;4999349;28;20663;-81
2022/08/03 11:45:36;;;;;;;2.10;2.00;;;34.80;52.60;;;;;;5005133;28;20630;-81
2022/08/03 11:48:16;;;;;;;2.43;1.93;;;34.70;52.70;;;;;;5005754;28;21371;-82
2022/08/03 11:50:44;;;;;;;1.90;1.80;;;34.90;52.40;;;;;;5000333;28;20685;-82
2022/08/03 11:53:15;;;;;;;2.10;2.00;;;35.20;51.80;;;;;;5006631;28;21258;-80
2022/08/03 11:55:45;;;;;;;2.00;1.90;;;35.50;52.00;;;;;;5016484;28;20701;-82
2022/08/03 11:58:18;;;;;;;2.03;1.60;;;35.90;52.40;;;;;;5001585;28;20675;-82
2022/08/03 12:00:45;;;;;;;3.47;1.70;;;36.30;50.60;;;;;;5000710;28;20733;-82
2022/08/03 12:03:14;;;;;;;1.80;1.60;;;36.70;49.30;;;;;;5000903;28;21117;-82
2022/08/03 12:05:44;;;;;;;2.23;1.70;;;36.90;48.30;;;;;;5001357;28;20653;-81
2022/08/03 12:08:13;;;;;;;2.30;1.57;;;37.10;48.40;;;;;;4998773;28;20216;-82
2022/08/03 12:10:46;;;;;;;1.95;1.67;;;37.00;46.90;;;;;;5002791;28;20233;-82
2022/08/03 12:13:13;;;;;;;3.10;2.10;;;37.00;46.90;;;;;;5003800;28;20723;-82
2022/08/03 12:15:41;;;;;;;3.80;1.50;;;37.20;47.00;;;;;;5002002;28;20608;-82
2022/08/03 12:18:16;;;;;;;1.65;1.55;;;37.40;46.50;;;;;;5006803;28;20282;-82
2022/08/03 12:20:44;;;;;;;2.10;1.90;;;37.60;46.00;;;;;;5002358;28;20215;-82
2022/08/03 12:23:11;;;;;;;1.75;1.65;;;37.80;45.50;;;;;;5007377;28;20228;-82
2022/08/03 12:25:42;;;;;;;3.25;1.95;;;37.80;45.40;;;;;;5004861;28;20582;-81
2022/08/03 12:28:18;;;;;;;2.28;2.08;;;37.30;45.20;;;;;;5006410;28;20208;-82
2022/08/03 12:30:50;;;;;;;2.90;1.50;;;37.30;45.70;;;;;;5009276;28;20271;-82
2022/08/03 12:33:22;;;;;;;4.50;2.22;;;37.30;45.30;;;;;;5002384;28;20278;-82
2022/08/03 12:35:51;;;;;;;1.70;1.60;;;37.40;45.80;;;;;;5002606;28;20211;-81
2022/08/03 12:38:22;;;;;;;2.45;1.85;;;37.80;45.80;;;;;;5006545;28;20213;-82
2022/08/03 12:40:57;;;;;;;3.85;2.10;;;38.40;46.00;;;;;;5002433;28;20210;-81
2022/08/03 12:43:25;;;;;;;1.63;1.52;;;38.70;43.70;;;;;;5002631;28;20243;-82
2022/08/03 12:46:14;;;;;;;1.77;1.67;;;38.80;43.10;;;;;;5006193;28;20208;-82
2022/08/03 12:49:17;;;;;;;1.75;1.65;;;39.10;42.30;;;;;;5003956;28;20196;-82
2022/08/03 12:51:58;;;;;;;3.22;1.70;;;39.40;42.70;;;;;;4931862;28;20722;-81
2022/08/03 12:54:26;;;;;;;1.90;1.80;;;39.60;42.80;;;;;;4947595;28;20242;-82
2022/08/03 12:57:01;;;;;;;2.13;1.88;;;39.60;42.10;;;;;;4975046;28;20212;-82
2022/08/03 12:59:30;;;;;;;1.85;1.75;;;39.50;42.40;;;;;;5007693;28;20234;-81
2022/08/03 13:01:58;;;;;;;3.90;1.92;;;39.60;42.50;;;;;;5007272;28;20204;-82
2022/08/03 13:04:27;;;;;;;2.35;1.70;;;39.70;41.40;;;;;;5003405;28;20271;-82
2022/08/03 13:06:58;;;;;;;2.25;1.85;;;39.80;41.30;;;;;;5002076;28;20208;-81
2022/08/03 13:09:26;;;;;;;1.55;1.45;;;39.20;41.50;;;;;;5006274;28;20208;-81